PWSweather.com
Personal Weather Stations
Station Observations

SkegnessGB

Lat: 53.147585, Lon: 0.345774

Elevation: 18

Station Type: Fine Offset WH3080

http://www.skegnessweather.info/

High Low Average
Temperature 41.7°F5.4°C 37.6°F3.1°C 39.2°F4.0°C
Dew Point 41.7°F5.4°C 37.6°F3.1°C 39.1°F3.9°C
Winds 11.3 mph 18.2 kmh 2.8 mph 4.5 kmh 7.0 mph ENE11.3 kmh ENE
Wind Gusts 13.3 mph21.4 kmh 4.2 mph6.8 kmh 8.0 mph12.9 kmh
Humidity 100% 95% 100%
Pressure 29.45 in997.3 mb 29.14 in986.8 mb -
Precipitation 0.21 in5.3 mm - -
Hour Temp Dew Point Humidity Winds Wind Gusts Pressure Precip Precip Rate Daily Precip Total
12:00 AM 39.9°F4.4°C 38.6°F3.7°C 95% 4.0 mph NW6.4 kmh NW 5.9 mph9.5 kmh 29.18 in988.1 mb 0.00 in0.0 mm 0.00 in0.0 mm 0.00 in0.0 mm
12:10 AM 39.9°F4.4°C 38.6°F3.7°C 95% 3.7 mph NNW6.0 kmh NNW 5.9 mph9.5 kmh 29.18 in988.1 mb 0.00 in0.0 mm 0.00 in0.0 mm 0.00 in0.0 mm
12:20 AM 39.9°F4.4°C 38.6°F3.7°C 95% 5.9 mph NNE9.5 kmh NNE 6.6 mph10.6 kmh 29.18 in988.1 mb 0.00 in0.0 mm 0.00 in0.0 mm 0.00 in0.0 mm
12:30 AM 39.9°F4.4°C 38.6°F3.7°C 95% 5.0 mph NNE8.0 kmh NNE 9.1 mph14.6 kmh 29.18 in988.1 mb 0.00 in0.0 mm 0.00 in0.0 mm 0.00 in0.0 mm
12:40 AM 40.1°F4.5°C 39.1°F3.9°C 96% 4.0 mph NNW6.4 kmh NNW 5.9 mph9.5 kmh 29.18 in988.1 mb 0.00 in0.0 mm 0.00 in0.0 mm 0.00 in0.0 mm
12:50 AM 40.6°F4.8°C 39.6°F4.2°C 96% 4.5 mph NNW7.2 kmh NNW 7.6 mph12.2 kmh 29.18 in988.1 mb 0.00 in0.0 mm 0.00 in0.0 mm 0.00 in0.0 mm
01:00 AM 40.8°F4.9°C 39.8°F4.3°C 96% 5.2 mph N8.4 kmh N 8.4 mph13.5 kmh 29.18 in988.1 mb 0.00 in0.0 mm 0.00 in0.0 mm 0.00 in0.0 mm
01:10 AM 40.8°F4.9°C 39.8°F4.3°C 96% 4.2 mph NNE6.8 kmh NNE 6.6 mph10.6 kmh 29.19 in988.5 mb 0.00 in0.0 mm 0.00 in0.0 mm 0.00 in0.0 mm
01:20 AM 41.0°F5.0°C 39.9°F4.4°C 96% 2.9 mph WNW4.7 kmh WNW 6.6 mph10.6 kmh 29.18 in988.1 mb 0.00 in0.0 mm 0.00 in0.0 mm 0.00 in0.0 mm
01:30 AM 40.8°F4.9°C 40.0°F4.4°C 97% 3.9 mph N6.3 kmh N 6.6 mph10.6 kmh 29.17 in987.8 mb 0.00 in0.0 mm 0.00 in0.0 mm 0.00 in0.0 mm
01:40 AM 40.6°F4.8°C 39.9°F4.4°C 97% 4.2 mph NE6.8 kmh NE 6.6 mph10.6 kmh 29.17 in987.8 mb 0.00 in0.0 mm 0.00 in0.0 mm 0.00 in0.0 mm
01:50 AM 40.3°F4.6°C 39.5°F4.2°C 97% 4.9 mph NNE7.9 kmh NNE 6.6 mph10.6 kmh 29.16 in987.5 mb 0.00 in0.0 mm 0.00 in0.0 mm 0.00 in0.0 mm
02:00 AM 39.9°F4.4°C 39.1°F3.9°C 97% 4.5 mph N7.2 kmh N 7.6 mph12.2 kmh 29.16 in987.5 mb 0.00 in0.0 mm 0.00 in0.0 mm 0.00 in0.0 mm
02:10 AM 39.9°F4.4°C 39.4°F4.1°C 98% 4.0 mph NNW6.4 kmh NNW 7.6 mph12.2 kmh 29.16 in987.5 mb 0.00 in0.0 mm 0.00 in0.0 mm 0.00 in0.0 mm
02:20 AM 39.7°F4.3°C 39.2°F4.0°C 98% 5.0 mph NE8.0 kmh NE 9.1 mph14.6 kmh 29.16 in987.5 mb 0.01 in0.3 mm 0.06 in1.5 mm 0.01 in0.3 mm
02:30 AM 39.7°F4.3°C 39.5°F4.2°C 99% 3.9 mph NNW6.3 kmh NNW 5.9 mph9.5 kmh 29.15 in987.1 mb 0.01 in0.3 mm 0.00 in0.0 mm 0.01 in0.3 mm
02:40 AM 39.7°F4.3°C 39.5°F4.2°C 99% 4.1 mph NNW6.6 kmh NNW 7.6 mph12.2 kmh 29.15 in987.1 mb 0.01 in0.3 mm 0.00 in0.0 mm 0.01 in0.3 mm
02:50 AM 39.4°F4.1°C 39.1°F3.9°C 99% 3.9 mph NW6.3 kmh NW 5.9 mph9.5 kmh 29.15 in987.1 mb 0.01 in0.3 mm 0.00 in0.0 mm 0.01 in0.3 mm
03:00 AM 39.2°F4.0°C 39.2°F4.0°C 100% 4.3 mph NNE6.9 kmh NNE 5.9 mph9.5 kmh 29.16 in987.5 mb 0.01 in0.3 mm 0.00 in0.0 mm 0.01 in0.3 mm
03:10 AM 39.2°F4.0°C 39.2°F4.0°C 100% 4.4 mph NNE7.1 kmh NNE 7.6 mph12.2 kmh 29.15 in987.1 mb 0.01 in0.3 mm 0.00 in0.0 mm 0.01 in0.3 mm
03:20 AM 39.0°F3.9°C 39.0°F3.9°C 100% 4.0 mph NNW6.4 kmh NNW 6.6 mph10.6 kmh 29.15 in987.1 mb 0.00 in0.0 mm 0.00 in0.0 mm 0.01 in0.3 mm
03:30 AM 39.0°F3.9°C 39.0°F3.9°C 100% 4.2 mph NNE6.8 kmh NNE 5.9 mph9.5 kmh 29.15 in987.1 mb 0.00 in0.0 mm 0.00 in0.0 mm 0.01 in0.3 mm
03:40 AM 39.0°F3.9°C 39.0°F3.9°C 100% 3.4 mph N5.5 kmh N 4.2 mph6.8 kmh 29.15 in987.1 mb 0.00 in0.0 mm 0.00 in0.0 mm 0.01 in0.3 mm
03:50 AM 38.8°F3.8°C 38.8°F3.8°C 100% 2.8 mph N4.5 kmh N 4.2 mph6.8 kmh 29.15 in987.1 mb 0.00 in0.0 mm 0.00 in0.0 mm 0.01 in0.3 mm
04:00 AM 38.8°F3.8°C 38.8°F3.8°C 100% 3.2 mph N5.1 kmh N 4.2 mph6.8 kmh 29.14 in986.8 mb 0.00 in0.0 mm 0.00 in0.0 mm 0.01 in0.3 mm
04:10 AM 38.8°F3.8°C 38.8°F3.8°C 100% 3.9 mph N6.3 kmh N 6.6 mph10.6 kmh 29.15 in987.1 mb 0.00 in0.0 mm 0.00 in0.0 mm 0.01 in0.3 mm
04:20 AM 38.7°F3.7°C 38.7°F3.7°C 100% 4.1 mph N6.6 kmh N 6.6 mph10.6 kmh 29.14 in986.8 mb 0.00 in0.0 mm 0.00 in0.0 mm 0.01 in0.3 mm
04:30 AM 38.5°F3.6°C 38.5°F3.6°C 100% 4.7 mph NE7.6 kmh NE 6.6 mph10.6 kmh 29.14 in986.8 mb 0.00 in0.0 mm 0.00 in0.0 mm 0.01 in0.3 mm
04:40 AM 38.5°F3.6°C 38.5°F3.6°C 100% 5.1 mph NNE8.2 kmh NNE 6.6 mph10.6 kmh 29.14 in986.8 mb 0.00 in0.0 mm 0.00 in0.0 mm 0.01 in0.3 mm
04:50 AM 38.5°F3.6°C 38.5°F3.6°C 100% 5.0 mph NNE8.0 kmh NNE 5.9 mph9.5 kmh 29.14 in986.8 mb 0.00 in0.0 mm 0.00 in0.0 mm 0.01 in0.3 mm
05:00 AM 38.5°F3.6°C 38.5°F3.6°C 100% 4.8 mph N7.7 kmh N 5.9 mph9.5 kmh 29.14 in986.8 mb 0.00 in0.0 mm 0.00 in0.0 mm 0.01 in0.3 mm
05:10 AM 38.5°F3.6°C 38.5°F3.6°C 100% 5.3 mph N8.5 kmh N 6.6 mph10.6 kmh 29.14 in986.8 mb 0.00 in0.0 mm 0.00 in0.0 mm 0.01 in0.3 mm
05:20 AM 38.5°F3.6°C 38.5°F3.6°C 100% 5.9 mph N9.5 kmh N 7.6 mph12.2 kmh 29.14 in986.8 mb 0.00 in0.0 mm 0.00 in0.0 mm 0.01 in0.3 mm
05:30 AM 38.7°F3.7°C 38.7°F3.7°C 100% 5.0 mph NNE8.0 kmh NNE 6.6 mph10.6 kmh 29.14 in986.8 mb 0.00 in0.0 mm 0.00 in0.0 mm 0.01 in0.3 mm
05:40 AM 38.7°F3.7°C 38.7°F3.7°C 100% 6.1 mph N9.8 kmh N 9.1 mph14.6 kmh 29.14 in986.8 mb 0.00 in0.0 mm 0.00 in0.0 mm 0.01 in0.3 mm
05:50 AM 38.7°F3.7°C 38.7°F3.7°C 100% 4.4 mph NE7.1 kmh NE 6.6 mph10.6 kmh 29.14 in986.8 mb 0.00 in0.0 mm 0.00 in0.0 mm 0.01 in0.3 mm
06:00 AM 38.5°F3.6°C 38.5°F3.6°C 100% 4.5 mph NNE7.2 kmh NNE 5.9 mph9.5 kmh 29.14 in986.8 mb 0.00 in0.0 mm 0.00 in0.0 mm 0.01 in0.3 mm
06:10 AM 38.7°F3.7°C 38.7°F3.7°C 100% 4.8 mph N7.7 kmh N 4.9 mph7.9 kmh 29.14 in986.8 mb 0.00 in0.0 mm 0.00 in0.0 mm 0.01 in0.3 mm
06:20 AM 38.7°F3.7°C 38.7°F3.7°C 100% 4.6 mph N7.4 kmh N 4.9 mph7.9 kmh 29.14 in986.8 mb 0.00 in0.0 mm 0.00 in0.0 mm 0.01 in0.3 mm
06:30 AM 38.8°F3.8°C 38.8°F3.8°C 100% 4.6 mph NNE7.4 kmh NNE 5.9 mph9.5 kmh 29.14 in986.8 mb 0.00 in0.0 mm 0.00 in0.0 mm 0.01 in0.3 mm
06:40 AM 38.8°F3.8°C 38.8°F3.8°C 100% 3.7 mph N6.0 kmh N 6.6 mph10.6 kmh 29.15 in987.1 mb 0.00 in0.0 mm 0.00 in0.0 mm 0.01 in0.3 mm
06:50 AM 38.8°F3.8°C 38.8°F3.8°C 100% 3.9 mph N6.3 kmh N 5.9 mph9.5 kmh 29.15 in987.1 mb 0.01 in0.3 mm 0.06 in1.5 mm 0.02 in0.5 mm
07:00 AM 39.0°F3.9°C 39.0°F3.9°C 100% 4.9 mph N7.9 kmh N 5.9 mph9.5 kmh 29.14 in986.8 mb 0.02 in0.5 mm 0.01 in0.3 mm 0.04 in1.0 mm
07:10 AM 39.2°F4.0°C 39.2°F4.0°C 100% 5.2 mph N8.4 kmh N 5.9 mph9.5 kmh 29.14 in986.8 mb 0.02 in0.5 mm 0.00 in0.0 mm 0.04 in1.0 mm
07:20 AM 39.2°F4.0°C 39.2°F4.0°C 100% 5.1 mph NNE8.2 kmh NNE 6.6 mph10.6 kmh 29.15 in987.1 mb 0.02 in0.5 mm 0.00 in0.0 mm 0.04 in1.0 mm
07:30 AM 39.0°F3.9°C 39.0°F3.9°C 100% 3.9 mph N6.3 kmh N 6.6 mph10.6 kmh 29.15 in987.1 mb 0.02 in0.5 mm 0.00 in0.0 mm 0.04 in1.0 mm
07:40 AM 39.2°F4.0°C 39.2°F4.0°C 100% 4.9 mph NNE7.9 kmh NNE 6.6 mph10.6 kmh 29.15 in987.1 mb 0.02 in0.5 mm 0.00 in0.0 mm 0.04 in1.0 mm
07:50 AM 39.2°F4.0°C 39.2°F4.0°C 100% 4.6 mph N7.4 kmh N 5.9 mph9.5 kmh 29.15 in987.1 mb 0.01 in0.3 mm 0.00 in0.0 mm 0.04 in1.0 mm
08:00 AM 39.2°F4.0°C 39.2°F4.0°C 100% 4.9 mph NE7.9 kmh NE 5.9 mph9.5 kmh 29.15 in987.1 mb 0.00 in0.0 mm 0.00 in0.0 mm 0.04 in1.0 mm
08:10 AM 39.4°F4.1°C 39.4°F4.1°C 100% 4.9 mph NNE7.9 kmh NNE 5.9 mph9.5 kmh 29.15 in987.1 mb 0.00 in0.0 mm 0.00 in0.0 mm 0.04 in1.0 mm
08:20 AM 39.4°F4.1°C 39.4°F4.1°C 100% 4.5 mph NE7.2 kmh NE 5.9 mph9.5 kmh 29.15 in987.1 mb 0.00 in0.0 mm 0.00 in0.0 mm 0.04 in1.0 mm
08:30 AM 39.4°F4.1°C 39.4°F4.1°C 100% 3.8 mph NNE6.1 kmh NNE 4.2 mph6.8 kmh 29.15 in987.1 mb 0.00 in0.0 mm 0.00 in0.0 mm 0.04 in1.0 mm
08:40 AM 39.4°F4.1°C 39.4°F4.1°C 100% 6.1 mph NNE9.8 kmh NNE 7.6 mph12.2 kmh 29.15 in987.1 mb 0.00 in0.0 mm 0.00 in0.0 mm 0.04 in1.0 mm
08:50 AM 39.4°F4.1°C 39.4°F4.1°C 100% 5.4 mph NNE8.7 kmh NNE 5.9 mph9.5 kmh 29.15 in987.1 mb 0.00 in0.0 mm 0.00 in0.0 mm 0.04 in1.0 mm
09:00 AM 39.4°F4.1°C 39.4°F4.1°C 100% 6.0 mph NNE9.7 kmh NNE 6.6 mph10.6 kmh 29.15 in987.1 mb 0.00 in0.0 mm 0.00 in0.0 mm 0.04 in1.0 mm
09:10 AM 39.4°F4.1°C 39.4°F4.1°C 100% 5.9 mph N9.5 kmh N 5.9 mph9.5 kmh 29.15 in987.1 mb 0.00 in0.0 mm 0.00 in0.0 mm 0.04 in1.0 mm
09:20 AM 39.6°F4.2°C 39.6°F4.2°C 100% 6.2 mph NNE10.0 kmh NNE 7.6 mph12.2 kmh 29.15 in987.1 mb 0.00 in0.0 mm 0.00 in0.0 mm 0.04 in1.0 mm
09:30 AM 39.6°F4.2°C 39.6°F4.2°C 100% 5.5 mph NNE8.9 kmh NNE 7.6 mph12.2 kmh 29.16 in987.5 mb 0.00 in0.0 mm 0.00 in0.0 mm 0.04 in1.0 mm
09:40 AM 39.4°F4.1°C 39.4°F4.1°C 100% 6.2 mph NE10.0 kmh NE 8.4 mph13.5 kmh 29.16 in987.5 mb 0.00 in0.0 mm 0.00 in0.0 mm 0.04 in1.0 mm
09:50 AM 39.6°F4.2°C 39.6°F4.2°C 100% 6.5 mph NNE10.5 kmh NNE 6.6 mph10.6 kmh 29.15 in987.1 mb 0.01 in0.3 mm 0.06 in1.5 mm 0.05 in1.3 mm
10:00 AM 39.6°F4.2°C 39.6°F4.2°C 100% 6.7 mph NE10.8 kmh NE 8.4 mph13.5 kmh 29.15 in987.1 mb 0.01 in0.3 mm 0.00 in0.0 mm 0.05 in1.3 mm
10:10 AM 39.6°F4.2°C 39.6°F4.2°C 100% 8.0 mph NE12.9 kmh NE 8.4 mph13.5 kmh 29.15 in987.1 mb 0.01 in0.3 mm 0.00 in0.0 mm 0.05 in1.3 mm
10:20 AM 39.9°F4.4°C 39.9°F4.4°C 100% 7.8 mph NE12.6 kmh NE 7.6 mph12.2 kmh 29.15 in987.1 mb 0.01 in0.3 mm 0.00 in0.0 mm 0.05 in1.3 mm
10:30 AM 39.9°F4.4°C 39.9°F4.4°C 100% 8.1 mph NE13.0 kmh NE 9.1 mph14.6 kmh 29.16 in987.5 mb 0.01 in0.3 mm 0.00 in0.0 mm 0.05 in1.3 mm
10:40 AM 39.9°F4.4°C 39.9°F4.4°C 100% 6.8 mph NE10.9 kmh NE 8.4 mph13.5 kmh 29.16 in987.5 mb 0.01 in0.3 mm 0.00 in0.0 mm 0.05 in1.3 mm
10:50 AM 39.9°F4.4°C 39.9°F4.4°C 100% 7.3 mph NNE11.7 kmh NNE 9.1 mph14.6 kmh 29.16 in987.5 mb 0.00 in0.0 mm 0.00 in0.0 mm 0.05 in1.3 mm
11:00 AM 39.9°F4.4°C 39.9°F4.4°C 100% 5.5 mph NE8.9 kmh NE 7.6 mph12.2 kmh 29.16 in987.5 mb 0.00 in0.0 mm 0.00 in0.0 mm 0.05 in1.3 mm
11:10 AM 39.9°F4.4°C 39.9°F4.4°C 100% 6.7 mph NE10.8 kmh NE 7.6 mph12.2 kmh 29.17 in987.8 mb 0.00 in0.0 mm 0.00 in0.0 mm 0.05 in1.3 mm
11:20 AM 40.1°F4.5°C 40.1°F4.5°C 100% 7.0 mph N11.3 kmh N 7.6 mph12.2 kmh 29.16 in987.5 mb 0.00 in0.0 mm 0.00 in0.0 mm 0.05 in1.3 mm
11:30 AM 40.3°F4.6°C 40.3°F4.6°C 100% 6.2 mph NNE10.0 kmh NNE 6.6 mph10.6 kmh 29.16 in987.5 mb 0.00 in0.0 mm 0.00 in0.0 mm 0.05 in1.3 mm
11:40 AM 40.1°F4.5°C 40.1°F4.5°C 100% 7.9 mph NE12.7 kmh NE 8.4 mph13.5 kmh 29.16 in987.5 mb 0.00 in0.0 mm 0.00 in0.0 mm 0.05 in1.3 mm
11:50 AM 39.9°F4.4°C 39.9°F4.4°C 100% 7.9 mph NNE12.7 kmh NNE 10.1 mph16.3 kmh 29.17 in987.8 mb 0.00 in0.0 mm 0.00 in0.0 mm 0.05 in1.3 mm
12:00 PM 39.7°F4.3°C 39.7°F4.3°C 100% 7.3 mph N11.7 kmh N 7.6 mph12.2 kmh 29.17 in987.8 mb 0.00 in0.0 mm 0.00 in0.0 mm 0.05 in1.3 mm
12:10 PM 39.6°F4.2°C 39.6°F4.2°C 100% 7.5 mph N12.1 kmh N 7.6 mph12.2 kmh 29.16 in987.5 mb 0.01 in0.3 mm 0.06 in1.5 mm 0.06 in1.5 mm
12:20 PM 39.6°F4.2°C 39.6°F4.2°C 100% 7.9 mph NNE12.7 kmh NNE 9.1 mph14.6 kmh 29.16 in987.5 mb 0.01 in0.3 mm 0.00 in0.0 mm 0.06 in1.5 mm
12:30 PM 39.6°F4.2°C 39.6°F4.2°C 100% 7.2 mph N11.6 kmh N 7.6 mph12.2 kmh 29.16 in987.5 mb 0.01 in0.3 mm 0.00 in0.0 mm 0.06 in1.5 mm
12:40 PM 40.5°F4.7°C 40.5°F4.7°C 100% 7.9 mph NNE12.7 kmh NNE 9.1 mph14.6 kmh 29.17 in987.8 mb 0.01 in0.3 mm 0.00 in0.0 mm 0.06 in1.5 mm
12:50 PM 41.4°F5.2°C 41.4°F5.2°C 100% 7.8 mph N12.6 kmh N 10.8 mph17.4 kmh 29.16 in987.5 mb 0.01 in0.3 mm 0.00 in0.0 mm 0.06 in1.5 mm
01:00 PM 41.7°F5.4°C 41.7°F5.4°C 100% 8.7 mph N14.0 kmh N 10.8 mph17.4 kmh 29.16 in987.5 mb 0.01 in0.3 mm 0.00 in0.0 mm 0.06 in1.5 mm
01:10 PM 41.4°F5.2°C 41.4°F5.2°C 100% 11.0 mph N17.7 kmh N 10.8 mph17.4 kmh 29.17 in987.8 mb 0.00 in0.0 mm 0.00 in0.0 mm 0.06 in1.5 mm
01:20 PM 40.8°F4.9°C 40.8°F4.9°C 100% 7.6 mph NE12.2 kmh NE 10.1 mph16.3 kmh 29.17 in987.8 mb 0.00 in0.0 mm 0.00 in0.0 mm 0.06 in1.5 mm
01:30 PM 40.8°F4.9°C 40.8°F4.9°C 100% 7.4 mph NNE11.9 kmh NNE 9.1 mph14.6 kmh 29.17 in987.8 mb 0.00 in0.0 mm 0.00 in0.0 mm 0.06 in1.5 mm
01:40 PM 40.8°F4.9°C 40.8°F4.9°C 100% 8.5 mph NE13.7 kmh NE 9.1 mph14.6 kmh 29.18 in988.1 mb 0.00 in0.0 mm 0.00 in0.0 mm 0.06 in1.5 mm
01:50 PM 41.0°F5.0°C 41.0°F5.0°C 100% 8.0 mph NNE12.9 kmh NNE 8.4 mph13.5 kmh 29.18 in988.1 mb 0.00 in0.0 mm 0.00 in0.0 mm 0.06 in1.5 mm
02:00 PM 40.6°F4.8°C 40.6°F4.8°C 100% 6.9 mph NNE11.1 kmh NNE 10.1 mph16.3 kmh 29.18 in988.1 mb 0.00 in0.0 mm 0.00 in0.0 mm 0.06 in1.5 mm
02:10 PM 40.5°F4.7°C 40.5°F4.7°C 100% 8.0 mph N12.9 kmh N 10.1 mph16.3 kmh 29.18 in988.1 mb 0.00 in0.0 mm 0.00 in0.0 mm 0.06 in1.5 mm
02:20 PM 40.5°F4.7°C 40.5°F4.7°C 100% 7.0 mph NNE11.3 kmh NNE 9.1 mph14.6 kmh 29.18 in988.1 mb 0.00 in0.0 mm 0.00 in0.0 mm 0.06 in1.5 mm
02:30 PM 40.5°F4.7°C 40.5°F4.7°C 100% 8.7 mph NNE14.0 kmh NNE 8.4 mph13.5 kmh 29.18 in988.1 mb 0.00 in0.0 mm 0.00 in0.0 mm 0.06 in1.5 mm
02:40 PM 40.3°F4.6°C 40.3°F4.6°C 100% 8.0 mph N12.9 kmh N 9.1 mph14.6 kmh 29.19 in988.5 mb 0.00 in0.0 mm 0.00 in0.0 mm 0.06 in1.5 mm
02:50 PM 40.1°F4.5°C 40.1°F4.5°C 100% 6.9 mph NE11.1 kmh NE 8.4 mph13.5 kmh 29.19 in988.5 mb 0.00 in0.0 mm 0.00 in0.0 mm 0.06 in1.5 mm
03:00 PM 39.9°F4.4°C 39.9°F4.4°C 100% 6.9 mph NNE11.1 kmh NNE 9.1 mph14.6 kmh 29.19 in988.5 mb 0.00 in0.0 mm 0.00 in0.0 mm 0.06 in1.5 mm
03:10 PM 39.7°F4.3°C 39.7°F4.3°C 100% 10.4 mph NE16.7 kmh NE 9.1 mph14.6 kmh 29.19 in988.5 mb 0.00 in0.0 mm 0.00 in0.0 mm 0.06 in1.5 mm
03:20 PM 39.4°F4.1°C 39.4°F4.1°C 100% 7.2 mph NE11.6 kmh NE 8.4 mph13.5 kmh 29.20 in988.8 mb 0.00 in0.0 mm 0.00 in0.0 mm 0.06 in1.5 mm
03:30 PM 39.4°F4.1°C 39.4°F4.1°C 100% 8.0 mph N12.9 kmh N 8.4 mph13.5 kmh 29.20 in988.8 mb 0.00 in0.0 mm 0.00 in0.0 mm 0.06 in1.5 mm
03:40 PM 39.2°F4.0°C 39.2°F4.0°C 100% 6.5 mph NNE10.5 kmh NNE 6.6 mph10.6 kmh 29.20 in988.8 mb 0.00 in0.0 mm 0.00 in0.0 mm 0.06 in1.5 mm
03:50 PM 39.2°F4.0°C 39.2°F4.0°C 100% 6.7 mph NNE10.8 kmh NNE 8.4 mph13.5 kmh 29.21 in989.2 mb 0.00 in0.0 mm 0.00 in0.0 mm 0.06 in1.5 mm
04:00 PM 39.0°F3.9°C 39.0°F3.9°C 100% 6.4 mph NE10.3 kmh NE 7.6 mph12.2 kmh 29.21 in989.2 mb 0.00 in0.0 mm 0.00 in0.0 mm 0.06 in1.5 mm
04:10 PM 38.8°F3.8°C 38.8°F3.8°C 100% 5.9 mph NE9.5 kmh NE 5.9 mph9.5 kmh 29.21 in989.2 mb 0.00 in0.0 mm 0.00 in0.0 mm 0.06 in1.5 mm
04:20 PM 38.7°F3.7°C 38.7°F3.7°C 100% 6.6 mph NE10.6 kmh NE 7.6 mph12.2 kmh 29.21 in989.2 mb 0.00 in0.0 mm 0.00 in0.0 mm 0.06 in1.5 mm
04:30 PM 38.7°F3.7°C 38.7°F3.7°C 100% 6.7 mph NE10.8 kmh NE 8.4 mph13.5 kmh 29.21 in989.2 mb 0.00 in0.0 mm 0.00 in0.0 mm 0.06 in1.5 mm
04:40 PM 38.5°F3.6°C 38.5°F3.6°C 100% 7.4 mph NE11.9 kmh NE 9.1 mph14.6 kmh 29.21 in989.2 mb 0.00 in0.0 mm 0.00 in0.0 mm 0.06 in1.5 mm
04:50 PM 38.5°F3.6°C 38.5°F3.6°C 100% 7.2 mph NE11.6 kmh NE 8.4 mph13.5 kmh 29.23 in989.8 mb 0.01 in0.3 mm 0.06 in1.5 mm 0.07 in1.8 mm
05:00 PM 38.5°F3.6°C 38.5°F3.6°C 100% 7.1 mph NE11.4 kmh NE 8.4 mph13.5 kmh 29.23 in989.8 mb 0.01 in0.3 mm 0.00 in0.0 mm 0.07 in1.8 mm
05:10 PM 38.5°F3.6°C 38.5°F3.6°C 100% 7.1 mph NE11.4 kmh NE 7.6 mph12.2 kmh 29.24 in990.2 mb 0.01 in0.3 mm 0.00 in0.0 mm 0.07 in1.8 mm
05:20 PM 38.5°F3.6°C 38.5°F3.6°C 100% 6.4 mph NNE10.3 kmh NNE 8.4 mph13.5 kmh 29.24 in990.2 mb 0.02 in0.5 mm 0.06 in1.5 mm 0.08 in2.0 mm
05:30 PM 38.5°F3.6°C 38.5°F3.6°C 100% 7.0 mph NNE11.3 kmh NNE 8.4 mph13.5 kmh 29.25 in990.5 mb 0.02 in0.5 mm 0.00 in0.0 mm 0.08 in2.0 mm
05:40 PM 38.5°F3.6°C 38.5°F3.6°C 100% 6.4 mph NNE10.3 kmh NNE 8.4 mph13.5 kmh 29.26 in990.9 mb 0.02 in0.5 mm 0.00 in0.0 mm 0.08 in2.0 mm
05:50 PM 38.5°F3.6°C 38.5°F3.6°C 100% 7.6 mph NE12.2 kmh NE 9.1 mph14.6 kmh 29.26 in990.9 mb 0.02 in0.5 mm 0.00 in0.0 mm 0.09 in2.3 mm
06:00 PM 38.5°F3.6°C 38.5°F3.6°C 100% 8.5 mph NE13.7 kmh NE 10.8 mph17.4 kmh 29.26 in990.9 mb 0.04 in1.0 mm 0.02 in0.5 mm 0.11 in2.8 mm
06:10 PM 38.5°F3.6°C 38.5°F3.6°C 100% 9.4 mph NNE15.1 kmh NNE 10.1 mph16.3 kmh 29.27 in991.2 mb 0.05 in1.3 mm 0.06 in1.5 mm 0.12 in3.0 mm
06:20 PM 38.5°F3.6°C 38.5°F3.6°C 100% 9.0 mph NE14.5 kmh NE 9.1 mph14.6 kmh 29.27 in991.2 mb 0.04 in1.0 mm 0.00 in0.0 mm 0.12 in3.0 mm
06:30 PM 38.7°F3.7°C 38.7°F3.7°C 100% 7.9 mph N12.7 kmh N 11.8 mph19.0 kmh 29.28 in991.5 mb 0.05 in1.3 mm 0.06 in1.5 mm 0.13 in3.3 mm
06:40 PM 38.7°F3.7°C 38.7°F3.7°C 100% 8.8 mph NNE14.2 kmh NNE 11.8 mph19.0 kmh 29.28 in991.5 mb 0.05 in1.3 mm 0.00 in0.0 mm 0.13 in3.3 mm
06:50 PM 38.7°F3.7°C 38.7°F3.7°C 100% 7.5 mph NE12.1 kmh NE 7.6 mph12.2 kmh 29.28 in991.5 mb 0.04 in1.0 mm 0.00 in0.0 mm 0.13 in3.3 mm
07:00 PM 38.5°F3.6°C 38.5°F3.6°C 100% 8.4 mph NNE13.5 kmh NNE 10.1 mph16.3 kmh 29.30 in992.2 mb 0.02 in0.5 mm 0.00 in0.0 mm 0.13 in3.3 mm
07:10 PM 38.5°F3.6°C 38.5°F3.6°C 100% 11.3 mph N18.2 kmh N 11.8 mph19.0 kmh 29.30 in992.2 mb 0.01 in0.3 mm 0.00 in0.0 mm 0.13 in3.3 mm
07:20 PM 38.5°F3.6°C 38.5°F3.6°C 100% 9.0 mph NNE14.5 kmh NNE 11.8 mph19.0 kmh 29.31 in992.6 mb 0.01 in0.3 mm 0.00 in0.0 mm 0.13 in3.3 mm
07:30 PM 38.5°F3.6°C 38.5°F3.6°C 100% 8.9 mph NE14.3 kmh NE 10.1 mph16.3 kmh 29.31 in992.6 mb 0.01 in0.3 mm 0.00 in0.0 mm 0.14 in3.6 mm
07:40 PM 38.5°F3.6°C 38.5°F3.6°C 100% 10.4 mph NE16.7 kmh NE 13.3 mph21.4 kmh 29.32 in992.9 mb 0.01 in0.3 mm 0.00 in0.0 mm 0.14 in3.6 mm
07:50 PM 38.5°F3.6°C 38.5°F3.6°C 100% 9.0 mph NE14.5 kmh NE 10.8 mph17.4 kmh 29.32 in992.9 mb 0.01 in0.3 mm 0.00 in0.0 mm 0.14 in3.6 mm
08:00 PM 38.5°F3.6°C 38.5°F3.6°C 100% 9.5 mph NE15.3 kmh NE 10.8 mph17.4 kmh 29.33 in993.2 mb 0.01 in0.3 mm 0.00 in0.0 mm 0.14 in3.6 mm
08:10 PM 38.5°F3.6°C 38.5°F3.6°C 100% 9.3 mph NNE15.0 kmh NNE 10.8 mph17.4 kmh 29.33 in993.2 mb 0.02 in0.5 mm 0.06 in1.5 mm 0.15 in3.8 mm
08:20 PM 38.3°F3.5°C 38.3°F3.5°C 100% 9.4 mph NNE15.1 kmh NNE 13.3 mph21.4 kmh 29.34 in993.6 mb 0.02 in0.5 mm 0.00 in0.0 mm 0.15 in3.8 mm
08:30 PM 38.3°F3.5°C 38.3°F3.5°C 100% 9.6 mph NNE15.4 kmh NNE 10.8 mph17.4 kmh 29.35 in993.9 mb 0.02 in0.5 mm 0.00 in0.0 mm 0.17 in4.3 mm
08:40 PM 38.3°F3.5°C 38.3°F3.5°C 100% 9.8 mph NE15.8 kmh NE 10.8 mph17.4 kmh 29.35 in993.9 mb 0.02 in0.5 mm 0.00 in0.0 mm 0.17 in4.3 mm
08:50 PM 38.3°F3.5°C 38.3°F3.5°C 100% 8.6 mph NNE13.8 kmh NNE 10.1 mph16.3 kmh 29.36 in994.2 mb 0.04 in1.0 mm 0.12 in3.0 mm 0.18 in4.6 mm
09:00 PM 38.3°F3.5°C 38.3°F3.5°C 100% 9.5 mph NE15.3 kmh NE 10.8 mph17.4 kmh 29.36 in994.2 mb 0.04 in1.0 mm 0.00 in0.0 mm 0.18 in4.6 mm
09:10 PM 38.3°F3.5°C 38.3°F3.5°C 100% 8.1 mph E13.0 kmh E 8.4 mph13.5 kmh 29.37 in994.6 mb 0.04 in1.0 mm 0.00 in0.0 mm 0.19 in4.8 mm
09:20 PM 38.1°F3.4°C 38.1°F3.4°C 100% 10.8 mph NE17.4 kmh NE 13.3 mph21.4 kmh 29.37 in994.6 mb 0.04 in1.0 mm 0.00 in0.0 mm 0.19 in4.8 mm
09:30 PM 38.1°F3.4°C 38.1°F3.4°C 100% 11.0 mph NNE17.7 kmh NNE 13.3 mph21.4 kmh 29.37 in994.6 mb 0.02 in0.5 mm 0.00 in0.0 mm 0.19 in4.8 mm
09:40 PM 38.1°F3.4°C 38.1°F3.4°C 100% 10.7 mph NNE17.2 kmh NNE 10.8 mph17.4 kmh 29.38 in994.9 mb 0.02 in0.5 mm 0.00 in0.0 mm 0.19 in4.8 mm
09:50 PM 38.1°F3.4°C 38.1°F3.4°C 100% 9.6 mph NE15.4 kmh NE 10.8 mph17.4 kmh 29.39 in995.3 mb 0.02 in0.5 mm 0.00 in0.0 mm 0.20 in5.1 mm
10:00 PM 38.1°F3.4°C 38.1°F3.4°C 100% 8.9 mph NE14.3 kmh NE 9.1 mph14.6 kmh 29.39 in995.3 mb 0.02 in0.5 mm 0.00 in0.0 mm 0.20 in5.1 mm
10:10 PM 38.1°F3.4°C 38.1°F3.4°C 100% 8.9 mph NE14.3 kmh NE 11.8 mph19.0 kmh 29.40 in995.6 mb 0.01 in0.3 mm 0.00 in0.0 mm 0.20 in5.1 mm
10:20 PM 37.9°F3.3°C 37.9°F3.3°C 100% 9.2 mph N14.8 kmh N 10.8 mph17.4 kmh 29.40 in995.6 mb 0.01 in0.3 mm 0.00 in0.0 mm 0.20 in5.1 mm
10:30 PM 37.9°F3.3°C 37.9°F3.3°C 100% 9.6 mph NE15.4 kmh NE 10.8 mph17.4 kmh 29.41 in995.9 mb 0.01 in0.3 mm 0.00 in0.0 mm 0.20 in5.1 mm
10:40 PM 37.9°F3.3°C 37.9°F3.3°C 100% 10.5 mph NNE16.9 kmh NNE 13.3 mph21.4 kmh 29.41 in995.9 mb 0.02 in0.5 mm 0.06 in1.5 mm 0.21 in5.3 mm
10:50 PM 37.9°F3.3°C 37.9°F3.3°C 100% 7.9 mph ENE12.7 kmh ENE 9.1 mph14.6 kmh 29.41 in995.9 mb 0.01 in0.3 mm 0.00 in0.0 mm 0.21 in5.3 mm
11:00 PM 37.8°F3.2°C 37.8°F3.2°C 100% 9.0 mph NNE14.5 kmh NNE 10.1 mph16.3 kmh 29.42 in996.3 mb 0.01 in0.3 mm 0.00 in0.0 mm 0.21 in5.3 mm
11:10 PM 37.8°F3.2°C 37.8°F3.2°C 100% 7.9 mph NE12.7 kmh NE 8.4 mph13.5 kmh 29.42 in996.3 mb 0.01 in0.3 mm 0.00 in0.0 mm 0.21 in5.3 mm
11:20 PM 37.8°F3.2°C 37.8°F3.2°C 100% 8.4 mph NNE13.5 kmh NNE 10.1 mph16.3 kmh 29.43 in996.6 mb 0.01 in0.3 mm 0.00 in0.0 mm 0.21 in5.3 mm
11:30 PM 37.6°F3.1°C 37.6°F3.1°C 100% 9.4 mph NE15.1 kmh NE 10.8 mph17.4 kmh 29.44 in997.0 mb 0.01 in0.3 mm 0.00 in0.0 mm 0.21 in5.3 mm
11:40 PM 37.6°F3.1°C 37.6°F3.1°C 100% 9.1 mph NNE14.6 kmh NNE 12.5 mph20.1 kmh 29.44 in997.0 mb 0.00 in0.0 mm 0.00 in0.0 mm 0.21 in5.3 mm
11:50 PM 37.6°F3.1°C 37.6°F3.1°C 100% 10.5 mph NNE16.9 kmh NNE 11.8 mph19.0 kmh 29.45 in997.3 mb 0.00 in0.0 mm 0.00 in0.0 mm 0.21 in5.3 mm